Time;durP1;ratioP1;P1;durP2;ratioP2;P2;SDS_P1;SDS_P2;PMS_P1;PMS_P2;Temp;Humidity;BMP_temperature;BMP_pressure;BME280_temperature;BME280_humidity;BME280_pressure;Samples;Min_cycle;Max_cycle;Signal;HPM_P1;HPM_P2
2023/02/09 00:01:33;;;;;;;20.77;8.85;;;;;;;2.18;69.51;101368.13;4983072;28;20043;-48
2023/02/09 00:04:01;;;;;;;31.00;8.63;;;;;;;2.18;69.67;101370.69;4988193;28;20125;-48
2023/02/09 00:06:29;;;;;;;27.70;9.35;;;;;;;2.17;69.83;101363.84;4980029;28;20054;-49
2023/02/09 00:08:57;;;;;;;25.92;9.18;;;;;;;2.15;70.78;101360.28;4990519;28;20528;-48
2023/02/09 00:14:17;;;;;;;24.92;9.43;;;;;;;2.16;69.33;101346.75;4974179;28;20073;-47
2023/02/09 00:16:47;;;;;;;22.60;8.32;;;;;;;2.16;69.35;101339.06;4984953;28;20063;-49
2023/02/09 00:19:14;;;;;;;22.60;8.82;;;;;;;2.16;69.29;101339.06;4989505;28;20053;-50
2023/02/09 00:21:41;;;;;;;22.92;8.27;;;;;;;2.16;70.83;101333.97;4989972;28;20108;-51
2023/02/09 00:24:10;;;;;;;24.13;9.35;;;;;;;2.16;70.84;101341.63;4985938;28;20069;-46
2023/02/09 00:26:37;;;;;;;26.70;8.57;;;;;;;2.17;70.42;101340.81;4983250;28;20046;-48
2023/02/09 00:29:04;;;;;;;28.48;8.93;;;;;;;2.16;70.31;101333.97;4987838;28;20045;-50
2023/02/09 00:31:30;;;;;;;26.23;9.00;;;;;;;2.16;70.58;101339.94;4991134;28;20149;-49
2023/02/09 00:33:57;;;;;;;22.80;8.35;;;;;;;2.16;69.33;101334.81;4993045;28;20078;-47
2023/02/09 00:36:24;;;;;;;23.38;8.38;;;;;;;2.17;69.82;101330.59;4984306;28;20046;-48
2023/02/09 00:38:51;;;;;;;20.75;8.00;;;;;;;2.18;70.62;101340.91;4988252;28;20417;-47
2023/02/09 00:42:04;;;;;;;23.88;9.00;;;;;;;2.20;70.03;101328.22;4988541;28;20081;-49
2023/02/09 00:44:04;;;;;;;17.67;7.65;;;;;;;2.21;70.88;101337.63;4977914;28;20097;-47
2023/02/09 00:46:31;;;;;;;24.70;8.73;;;;;;;2.23;71.15;101341.13;4993217;28;20078;-48
2023/02/09 00:48:57;;;;;;;21.60;8.27;;;;;;;2.22;70.27;101334.25;4989800;28;20163;-45
2023/02/09 00:51:24;;;;;;;26.52;8.60;;;;;;;2.23;70.26;101320.66;4984647;28;20058;-49
2023/02/09 00:53:50;;;;;;;21.83;7.80;;;;;;;2.23;71.10;101310.44;4993712;28;20073;-47
2023/02/09 00:56:17;;;;;;;25.20;8.15;;;;;;;2.24;70.94;101319.91;4991063;28;20074;-47
2023/02/09 00:58:44;;;;;;;22.98;8.15;;;;;;;2.26;70.41;101315.72;4986377;28;20698;-50
2023/02/09 01:01:14;;;;;;;20.48;7.95;;;;;;;2.26;70.39;101315.72;4988989;28;20124;-47
2023/02/09 01:03:41;;;;;;;;;;;;;;;2.21;70.28;101312.06;4982996;28;20059;-48
2023/02/09 01:06:09;;;;;;;16.48;7.80;;;;;;;2.24;70.44;101312.22;4972184;28;20413;-49
2023/02/09 01:08:37;;;;;;;25.73;7.20;;;;;;;2.22;70.43;101311.25;4984606;28;20071;-48
2023/02/09 01:11:08;;;;;;;23.58;7.63;;;;;;;2.24;70.64;101311.34;4984933;28;20142;-49
2023/02/09 01:13:35;;;;;;;19.95;8.25;;;;;;;2.25;71.24;101313.97;4992626;28;20077;-47
2023/02/09 01:16:07;;;;;;;24.95;8.45;;;;;;;2.28;71.78;101314.13;4988131;28;20112;-48
2023/02/09 01:18:33;;;;;;;24.90;7.95;;;;;;;2.28;70.97;101314.13;4989914;28;20070;-47
2023/02/09 01:21:00;;;;;;;21.60;8.25;;;;;;;2.27;71.55;101317.47;4992289;28;20121;-48
2023/02/09 01:23:27;;;;;;;23.52;8.32;;;;;;;2.30;71.30;101327.88;4990750;28;20085;-47
2023/02/09 01:26:10;;;;;;;26.52;8.32;;;;;;;2.31;71.60;101333.88;4992888;28;20100;-47
2023/02/09 01:28:37;;;;;;;17.25;6.88;;;;;;;2.34;71.99;101335.69;4989585;28;20097;-49
2023/02/09 01:31:06;;;;;;;21.45;7.65;;;;;;;2.34;70.67;101335.69;4986461;28;20054;-47
2023/02/09 01:33:32;;;;;;;21.02;8.25;;;;;;;2.36;71.79;101331.56;4984312;28;20057;-48
2023/02/09 01:36:03;;;;;;;18.85;7.68;;;;;;;2.36;70.98;101329.00;4990631;28;20581;-48
2023/02/09 01:38:30;;;;;;;19.45;7.25;;;;;;;2.37;71.04;101328.19;4983429;28;20493;-48
2023/02/09 01:40:56;;;;;;;27.48;7.85;;;;;;;2.37;71.79;101317.97;4988548;28;20628;-49
2023/02/09 01:43:23;;;;;;;21.08;8.32;;;;;;;2.37;70.75;101323.97;4988601;28;20077;-48
2023/02/09 01:45:53;;;;;;;25.73;8.23;;;;;;;2.37;72.04;101317.97;4995978;28;20054;-48
2023/02/09 01:48:29;;;;;;;27.15;8.20;;;;;;;2.38;72.17;101327.38;4989537;28;20117;-48
2023/02/09 01:50:59;;;;;;;22.58;7.97;;;;;;;2.38;71.28;101305.25;4992284;28;20038;-46
2023/02/09 01:53:26;;;;;;;;;;;;;;;2.34;71.33;101307.56;4991704;28;20105;-48
2023/02/09 01:56:01;;;;;;;17.85;6.57;;;;;;;2.37;71.16;101307.75;4988471;28;19922;-48
2023/02/09 01:58:28;;;;;;;22.35;7.32;;;;;;;2.38;71.21;101312.03;4986875;28;20129;-48
2023/02/09 02:00:54;;;;;;;21.17;8.32;;;;;;;2.40;71.28;101307.91;4991250;28;20139;-48
2023/02/09 02:03:24;;;;;;;24.67;7.80;;;;;;;2.40;70.91;101307.91;4988178;28;20140;-50
2023/02/09 02:05:55;;;;;;;19.23;7.22;;;;;;;2.38;71.51;101299.25;4988115;28;20560;-48
2023/02/09 02:10:59;;;;;;;22.17;7.78;;;;;;;2.41;71.32;101301.97;5118249;27;20394;-48
2023/02/09 02:13:26;;;;;;;21.30;8.05;;;;;;;2.41;72.71;101305.44;5048430;27;20652;-47
2023/02/09 02:16:33;;;;;;;26.00;8.40;;;;;;;2.40;72.03;101308.75;5038762;28;20056;-48
2023/02/09 02:19:36;;;;;;;19.98;6.63;;;;;;;2.42;71.17;101302.06;5026005;28;20056;-48
2023/02/09 02:22:43;;;;;;;19.23;7.53;;;;;;;2.43;72.52;101301.25;5061050;28;20640;-48
2023/02/09 02:31:21;;;;;;;18.48;8.43;;;;;;;2.52;72.47;101293.16;5010795;28;20399;-47
2023/02/09 02:36:37;;;;;;;32.60;12.25;;;;;;;2.96;71.90;101302.97;5054650;27;20405;-46
2023/02/09 02:39:24;;;;;;;;;;;;;;;2.68;72.32;101304.16;5041451;28;20096;-48
2023/02/09 02:44:30;;;;;;;20.77;9.57;;;;;;;2.69;73.54;101306.81;5061598;27;20403;-48
2023/02/09 02:47:02;;;;;;;22.75;9.32;;;;;;;2.70;73.71;101307.66;5016930;28;20085;-49
2023/02/09 02:49:38;;;;;;;24.80;10.18;;;;;;;2.71;72.28;101299.22;5012417;28;20045;-47
2023/02/09 02:52:08;;;;;;;25.83;10.48;;;;;;;2.72;72.85;101300.97;5017983;28;20073;-47
2023/02/09 02:54:39;;;;;;;21.80;9.38;;;;;;;2.71;73.40;101301.78;5013489;28;20108;-47
2023/02/09 02:57:12;;;;;;;22.27;9.13;;;;;;;2.72;72.99;101297.50;5011585;28;20132;-49
2023/02/09 03:00:01;;;;;;;21.55;9.07;;;;;;;2.71;72.33;101304.31;5014099;28;20045;-49
2023/02/09 03:02:32;;;;;;;18.15;8.88;;;;;;;2.73;73.53;101302.72;5016269;28;20169;-49
2023/02/09 03:05:02;;;;;;;20.15;9.60;;;;;;;2.74;71.93;101299.38;5008413;28;20081;-47
2023/02/09 03:07:28;;;;;;;17.88;9.07;;;;;;;2.74;72.89;101294.25;5007764;28;20057;-50
2023/02/09 03:09:56;;;;;;;22.90;10.60;;;;;;;2.74;73.22;101294.25;5010762;28;20046;-47
2023/02/09 03:15:27;;;;;;;18.48;7.88;;;;;;;2.75;72.71;101313.91;5046608;28;20407;-49
2023/02/09 03:23:29;;;;;;;24.33;7.57;;;;;;;2.79;72.30;101323.50;5097608;27;20394;-48
2023/02/09 03:26:00;;;;;;;19.02;7.82;;;;;;;2.81;72.58;101315.91;5057029;28;20052;-46
2023/02/09 03:28:32;;;;;;;24.27;7.50;;;;;;;2.79;72.59;101313.25;5076917;28;20058;-47
2023/02/09 03:31:01;;;;;;;19.83;6.93;;;;;;;2.79;73.14;101310.69;5065395;28;20556;-48
2023/02/09 03:33:31;;;;;;;20.20;7.38;;;;;;;2.80;73.03;101314.13;5069767;28;20743;-47
2023/02/09 03:35:59;;;;;;;;;;;;;;;2.75;73.02;101324.16;5079135;28;20127;-49
2023/02/09 03:38:26;;;;;;;19.05;7.43;;;;;;;2.79;73.55;101328.63;5078831;28;19952;-49
2023/02/09 03:40:53;;;;;;;17.98;7.55;;;;;;;2.82;73.63;101333.88;5058803;28;20664;-50
2023/02/09 03:44:25;;;;;;;20.60;8.07;;;;;;;2.85;72.51;101322.03;5070103;28;20071;-48
2023/02/09 03:46:06;;;;;;;19.17;6.93;;;;;;;2.87;73.52;101325.56;5076119;28;20094;-45
2023/02/09 03:48:34;;;;;;;24.20;8.80;;;;;;;2.89;72.72;101324.81;5077309;28;20503;-47
2023/02/09 03:51:00;;;;;;;22.58;8.30;;;;;;;2.92;72.97;101324.09;5076481;28;20495;-49
2023/02/09 03:53:27;;;;;;;21.35;6.93;;;;;;;2.92;72.92;101331.78;5078637;28;20089;-46
2023/02/09 03:55:53;;;;;;;21.20;8.70;;;;;;;2.94;72.72;101328.47;5078152;28;20079;-47
2023/02/09 03:58:20;;;;;;;21.98;7.55;;;;;;;2.97;72.08;101329.44;5059412;28;20163;-47
2023/02/09 04:00:47;;;;;;;20.83;7.20;;;;;;;2.97;73.32;101342.25;5064868;28;20072;-51
2023/02/09 04:03:13;;;;;;;20.90;7.18;;;;;;;2.99;73.46;101338.06;5072383;28;20056;-48
2023/02/09 04:05:40;;;;;;;20.95;6.95;;;;;;;2.98;72.56;101326.97;5078058;28;20131;-45
2023/02/09 04:08:06;;;;;;;19.67;7.40;;;;;;;3.03;73.52;101333.19;5074424;28;20094;-46
2023/02/09 04:10:33;;;;;;;20.85;7.00;;;;;;;3.06;73.38;101338.47;5074411;28;20098;-48
2023/02/09 04:13:00;;;;;;;22.70;7.15;;;;;;;3.10;73.30;101343.75;5069914;28;20051;-50
2023/02/09 04:15:26;;;;;;;21.90;7.68;;;;;;;3.12;72.99;101348.13;5075679;28;20196;-48
2023/02/09 04:17:53;;;;;;;20.52;8.15;;;;;;;3.17;72.30;101350.88;5074980;28;20099;-48
2023/02/09 04:20:20;;;;;;;22.33;7.57;;;;;;;3.20;72.33;101353.59;5079412;28;20113;-48
2023/02/09 04:22:46;;;;;;;24.00;8.15;;;;;;;3.25;73.37;101369.19;5067776;28;20146;-49
2023/02/09 04:25:13;;;;;;;19.15;6.18;;;;;;;3.26;73.62;101370.94;5073457;28;20080;-48
2023/02/09 04:27:39;;;;;;;21.77;8.30;;;;;;;3.29;72.91;101377.13;5082233;28;20099;-46
2023/02/09 04:30:07;;;;;;;21.20;7.05;;;;;;;3.30;73.57;101371.19;5072791;28;20087;-47
2023/02/09 04:32:33;;;;;;;22.35;6.65;;;;;;;3.33;72.32;101376.44;5068946;28;20048;-50
2023/02/09 04:35:00;;;;;;;17.02;6.63;;;;;;;3.36;73.08;101385.06;5063901;28;20157;-48
2023/02/09 04:37:26;;;;;;;23.30;8.32;;;;;;;3.40;72.86;101389.53;5064624;28;20064;-48
2023/02/09 04:39:53;;;;;;;17.05;6.97;;;;;;;3.44;72.07;101406.81;5057562;28;20131;-48
2023/02/09 04:42:19;;;;;;;20.25;7.50;;;;;;;3.47;72.85;101406.97;5062559;28;20102;-47
2023/02/09 04:44:46;;;;;;;18.88;7.45;;;;;;;3.51;72.38;101408.88;5066789;28;20539;-48
2023/02/09 04:47:12;;;;;;;19.13;7.80;;;;;;;3.53;73.10;101409.84;5062635;28;20105;-47
2023/02/09 04:49:41;;;;;;;16.15;7.25;;;;;;;3.55;72.83;101415.91;5063140;28;20547;-49
2023/02/09 04:52:07;;;;;;;17.65;7.20;;;;;;;3.56;72.48;101422.81;5057810;28;20041;-49
2023/02/09 04:54:34;;;;;;;20.40;7.47;;;;;;;3.58;72.94;101430.56;5058030;28;20075;-49
2023/02/09 04:59:47;;;;;;;19.35;6.90;;;;;;;3.59;72.81;101447.69;5049852;28;20048;-46
2023/02/09 05:02:14;;;;;;;18.27;6.68;;;;;;;3.60;72.41;101450.31;5052585;28;20080;-46
2023/02/09 05:04:41;;;;;;;20.27;8.07;;;;;;;3.62;72.98;101457.19;5060177;28;20044;-47
2023/02/09 05:07:07;;;;;;;21.98;7.20;;;;;;;3.63;72.79;101453.81;5062725;28;20048;-47
2023/02/09 05:09:34;;;;;;;21.38;7.35;;;;;;;3.64;73.22;101451.34;5058304;28;20121;-47
2023/02/09 05:12:00;;;;;;;25.10;7.60;;;;;;;3.64;73.13;101456.47;5061029;28;20078;-47
2023/02/09 05:14:27;;;;;;;21.98;7.47;;;;;;;3.65;73.33;101457.34;5063562;28;20665;-47
2023/02/09 05:16:54;;;;;;;18.45;6.93;;;;;;;3.66;72.74;101464.22;5053471;28;20076;-47
2023/02/09 05:19:20;;;;;;;19.83;6.88;;;;;;;3.69;73.10;101479.75;5059427;28;20087;-46
2023/02/09 05:21:47;;;;;;;19.10;6.65;;;;;;;3.71;72.72;101478.13;5055242;28;20411;-47
2023/02/09 05:24:13;;;;;;;16.67;6.63;;;;;;;3.72;73.15;101474.78;5059714;28;20477;-47
2023/02/09 05:26:40;;;;;;;18.40;6.93;;;;;;;3.75;73.70;101474.91;5059209;28;20863;-46
2023/02/09 05:29:07;;;;;;;15.05;6.07;;;;;;;3.77;73.53;101483.56;5063439;28;20052;-47
2023/02/09 05:31:33;;;;;;;19.73;6.70;;;;;;;3.79;73.49;101494.78;5055676;28;20088;-47
2023/02/09 05:34:00;;;;;;;20.52;6.22;;;;;;;3.82;73.86;101500.03;5062294;28;20059;-48
2023/02/09 05:36:27;;;;;;;17.17;6.65;;;;;;;3.83;73.65;101494.13;5061220;28;20521;-48
2023/02/09 05:38:54;;;;;;;19.63;6.25;;;;;;;3.88;73.78;101501.16;5063394;28;20072;-47
2023/02/09 05:44:07;;;;;;;15.88;6.25;;;;;;;3.90;73.61;101494.41;5047579;28;20447;-48
2023/02/09 05:46:34;;;;;;;19.50;7.35;;;;;;;3.92;73.93;101495.38;5059693;28;20055;-49
2023/02/09 05:49:00;;;;;;;17.30;7.43;;;;;;;3.94;73.41;101497.19;5063415;28;20090;-46
2023/02/09 05:51:27;;;;;;;19.00;7.03;;;;;;;3.96;73.92;101494.72;5064768;28;20068;-47
2023/02/09 05:53:55;;;;;;;18.65;7.18;;;;;;;3.98;73.87;101503.34;5058424;28;20496;-49
2023/02/09 05:56:21;;;;;;;24.65;7.05;;;;;;;4.00;73.68;101496.63;5056042;28;20095;-47
2023/02/09 05:58:48;;;;;;;18.35;7.15;;;;;;;4.02;73.43;101499.25;5035784;28;20467;-49
2023/02/09 06:01:15;;;;;;;19.65;7.38;;;;;;;4.03;73.59;101507.03;5056247;28;20110;-49
2023/02/09 06:03:41;;;;;;;21.92;7.68;;;;;;;4.05;74.05;101515.66;5066634;28;20121;-48
2023/02/09 06:06:08;;;;;;;19.40;6.35;;;;;;;4.06;74.20;101519.97;5052878;28;20076;-48
2023/02/09 06:08:34;;;;;;;23.52;6.32;;;;;;;4.07;73.79;101539.69;5066092;28;20362;-49
2023/02/09 06:11:02;;;;;;;21.55;7.03;;;;;;;4.09;73.56;101538.06;5062415;28;20183;-48
2023/02/09 06:13:29;;;;;;;19.20;7.30;;;;;;;4.11;74.13;101533.00;5050618;28;20101;-51
2023/02/09 06:15:55;;;;;;;24.90;7.45;;;;;;;4.14;73.81;101532.28;5060965;28;20953;-50
2023/02/09 06:18:22;;;;;;;21.63;7.00;;;;;;;4.16;73.90;101522.97;5068217;28;20067;-50
2023/02/09 06:20:49;;;;;;;20.05;7.60;;;;;;;4.16;73.94;101520.41;5060222;28;20068;-46
2023/02/09 06:23:15;;;;;;;23.50;8.07;;;;;;;4.18;74.84;101526.47;5062152;28;20097;-46
2023/02/09 06:25:42;;;;;;;55.30;17.73;;;;;;;4.20;73.59;101537.72;5061836;28;20048;-47
2023/02/09 06:28:08;;;;;;;54.25;17.67;;;;;;;4.20;74.07;101535.16;5062699;28;20040;-50
2023/02/09 06:30:35;;;;;;;74.95;28.45;;;;;;;4.21;74.33;101531.75;5057883;28;20056;-49
2023/02/09 06:33:02;;;;;;;50.60;20.85;;;;;;;4.21;74.07;101534.34;5052739;28;20593;-48
2023/02/09 06:35:28;;;;;;;28.33;12.40;;;;;;;4.23;73.71;101545.56;5061515;28;20102;-46
2023/02/09 06:37:56;;;;;;;23.30;9.15;;;;;;;4.23;74.08;101560.94;5062614;28;20276;-50
2023/02/09 06:40:23;;;;;;;25.67;8.50;;;;;;;4.25;74.05;101569.56;5057561;28;20504;-47
2023/02/09 06:42:50;;;;;;;25.85;8.30;;;;;;;4.26;74.32;101573.94;5060195;28;20098;-49
2023/02/09 06:45:16;;;;;;;18.42;7.22;;;;;;;4.26;74.25;101579.06;5057851;28;20056;-49
2023/02/09 06:47:44;;;;;;;23.30;7.82;;;;;;;4.28;74.49;101568.84;5056858;28;20052;-50
2023/02/09 06:50:12;;;;;;;28.63;8.98;;;;;;;4.29;74.28;101568.91;5043746;28;20216;-49
2023/02/09 06:52:39;;;;;;;16.50;5.60;;;;;;;4.28;74.24;101569.72;5067263;28;20309;-48
2023/02/09 06:55:07;;;;;;;15.85;5.80;;;;;;;4.29;74.57;101575.75;5068939;28;20083;-50
2023/02/09 06:57:34;;;;;;;21.60;7.97;;;;;;;4.30;74.39;101578.38;5060598;28;20480;-47
2023/02/09 07:00:02;;;;;;;23.20;8.30;;;;;;;4.29;74.00;101581.75;5057580;28;20098;-49
2023/02/09 07:02:28;;;;;;;17.58;6.95;;;;;;;4.31;74.31;101569.88;5056473;28;20051;-49
2023/02/09 07:04:56;;;;;;;17.85;6.60;;;;;;;4.32;74.41;101576.75;5067017;28;20466;-50
2023/02/09 07:07:23;;;;;;;16.63;5.93;;;;;;;4.32;74.60;101576.75;5062140;28;20551;-48
2023/02/09 07:09:51;;;;;;;22.95;9.38;;;;;;;4.34;74.47;101575.16;5041098;28;20079;-48
2023/02/09 07:12:17;;;;;;;24.95;11.88;;;;;;;4.35;74.53;101576.91;5061052;28;20419;-47
2023/02/09 07:14:44;;;;;;;28.13;11.77;;;;;;;4.37;74.68;101565.06;5055872;28;20365;-48
2023/02/09 07:17:11;;;;;;;23.40;8.32;;;;;;;4.40;74.08;101572.00;5058136;28;20189;-49
2023/02/09 07:19:37;;;;;;;24.52;7.03;;;;;;;4.39;74.49;101574.50;5059504;28;20067;-48
2023/02/09 07:22:04;;;;;;;25.90;7.10;;;;;;;4.36;74.50;101582.94;5061969;28;20471;-50
2023/02/09 07:24:30;;;;;;;19.95;7.05;;;;;;;4.34;74.59;101603.38;5057314;28;20130;-50
2023/02/09 07:26:57;;;;;;;19.52;5.85;;;;;;;4.30;74.48;101609.19;5055612;28;20126;-47
2023/02/09 07:29:24;;;;;;;22.45;6.95;;;;;;;4.26;74.89;101611.50;5059560;28;20049;-47
2023/02/09 07:31:50;;;;;;;20.92;6.57;;;;;;;4.22;74.52;101610.50;5060680;28;20484;-47
2023/02/09 07:34:17;;;;;;;16.77;6.97;;;;;;;4.18;74.31;101613.69;5061254;28;20495;-46
2023/02/09 07:36:45;;;;;;;15.10;6.15;;;;;;;4.13;74.44;101617.72;5054642;28;20060;-46
2023/02/09 07:39:13;;;;;;;18.45;6.13;;;;;;;4.04;74.70;101626.72;5058278;28;20053;-48
2023/02/09 07:41:40;;;;;;;15.15;5.78;;;;;;;3.96;74.48;101622.91;5028222;28;20063;-49
2023/02/09 07:44:08;;;;;;;14.20;4.72;;;;;;;3.89;74.63;101631.09;5053533;28;20132;-50
2023/02/09 07:46:34;;;;;;;17.27;5.53;;;;;;;3.81;74.70;101634.13;5033824;28;20048;-48
2023/02/09 07:49:01;;;;;;;6.25;2.80;;;;;;;3.78;75.41;101645.94;5047650;28;20547;-49
2023/02/09 07:51:28;;;;;;;6.55;3.17;;;;;;;3.73;76.11;101635.44;5048870;28;20056;-48
2023/02/09 07:53:57;;;;;;;15.23;4.93;;;;;;;3.72;74.89;101643.94;5053336;28;20071;-47
2023/02/09 07:56:25;;;;;;;9.98;4.60;;;;;;;3.70;75.52;101645.53;5048195;28;20044;-48
2023/02/09 07:58:52;;;;;;;12.25;3.97;;;;;;;3.69;74.59;101654.03;5036146;28;20574;-47
2023/02/09 08:01:20;;;;;;;8.02;3.40;;;;;;;3.63;76.02;101654.59;5049091;28;20684;-46
2023/02/09 08:03:48;;;;;;;8.98;3.83;;;;;;;3.64;75.23;101660.59;5034616;28;20044;-47
2023/02/09 08:08:54;;;;;;;12.45;5.18;;;;;;;3.63;76.00;101663.94;5032516;28;20392;-50
2023/02/09 08:11:28;;;;;;;11.05;4.05;;;;;;;3.63;75.49;101674.19;5032551;28;20077;-47
2023/02/09 08:13:56;;;;;;;10.43;3.13;;;;;;;3.63;75.89;101680.22;5031016;28;20053;-48
2023/02/09 08:16:27;;;;;;;8.80;3.50;;;;;;;3.65;75.67;101678.59;5011588;28;20092;-49
2023/02/09 08:18:56;;;;;;;;;;;;;;;3.62;75.70;101680.13;5009646;28;20046;-48
2023/02/09 08:21:24;;;;;;;9.23;2.97;;;;;;;3.70;75.71;101677.16;5020987;28;19925;-52
2023/02/09 08:23:54;;;;;;;8.20;3.08;;;;;;;3.91;74.67;101691.88;5040911;28;20126;-48
2023/02/09 08:26:21;;;;;;;;;;;;;;;4.46;75.74;101686.88;5061953;28;20484;-47
2023/02/09 08:28:48;;;;;;;12.38;3.70;;;;;;;5.42;75.16;101690.47;5027827;28;19974;-50
2023/02/09 08:31:17;;;;;;;7.90;3.28;;;;;;;6.51;73.89;101699.34;5027650;28;20053;-51
2023/02/09 08:33:47;;;;;;;14.30;4.90;;;;;;;7.62;72.19;101696.69;5045038;28;20045;-50
2023/02/09 08:36:15;;;;;;;12.68;5.00;;;;;;;8.65;71.78;101705.28;5037195;28;20052;-47
2023/02/09 08:38:43;;;;;;;12.20;5.55;;;;;;;9.64;70.18;101706.50;5049523;28;20536;-50
2023/02/09 08:41:12;;;;;;;12.63;5.65;;;;;;;10.61;69.20;101711.59;5035443;28;20145;-48
2023/02/09 08:43:39;;;;;;;19.10;6.32;;;;;;;11.50;67.62;101708.31;5034412;28;20095;-50
2023/02/09 08:46:08;;;;;;;14.75;5.43;;;;;;;12.32;66.41;101696.84;5039154;28;20072;-48
2023/02/09 08:48:37;;;;;;;7.32;3.75;;;;;;;13.09;63.57;101701.47;5055259;28;20045;-50
2023/02/09 08:51:05;;;;;;;8.15;3.97;;;;;;;13.64;61.39;101709.09;5040709;28;20045;-48
2023/02/09 08:53:32;;;;;;;12.40;3.20;;;;;;;13.93;60.17;101711.13;5040804;28;20057;-50
2023/02/09 08:55:59;;;;;;;7.18;4.28;;;;;;;14.05;60.94;101708.63;5040743;28;20077;-49
2023/02/09 08:58:26;;;;;;;7.72;3.03;;;;;;;14.31;60.11;101715.81;5040680;28;20041;-49
2023/02/09 09:00:55;;;;;;;6.05;3.00;;;;;;;14.73;59.67;101707.44;5038674;28;20095;-51
2023/02/09 09:03:26;;;;;;;5.55;2.88;;;;;;;15.21;58.20;101705.13;5040135;28;20069;-49
2023/02/09 09:05:59;;;;;;;6.72;3.35;;;;;;;15.62;56.34;101708.75;5040144;28;20450;-51
2023/02/09 09:08:26;;;;;;;7.22;2.88;;;;;;;16.08;55.77;101707.13;5037919;28;20744;-51
2023/02/09 09:10:53;;;;;;;6.80;2.40;;;;;;;16.62;55.29;101718.44;5037566;28;20053;-50
2023/02/09 09:13:20;;;;;;;6.15;3.10;;;;;;;17.17;53.74;101730.56;5038400;28;20512;-51
2023/02/09 09:15:46;;;;;;;8.05;1.85;;;;;;;17.72;52.29;101727.69;5038038;28;20072;-52
2023/02/09 09:18:13;;;;;;;8.52;2.53;;;;;;;18.30;51.47;101732.59;5037468;28;20041;-51
2023/02/09 09:20:41;;;;;;;11.20;2.70;;;;;;;18.70;50.03;101732.22;5025263;28;20567;-50
2023/02/09 09:23:09;;;;;;;6.22;2.10;;;;;;;19.20;49.08;101730.84;5027087;28;20492;-50
2023/02/09 09:25:38;;;;;;;6.55;2.10;;;;;;;19.46;47.42;101722.66;5016784;28;20037;-50
2023/02/09 09:28:06;;;;;;;6.78;2.05;;;;;;;19.73;46.89;101719.66;5023727;28;20078;-51
2023/02/09 09:30:33;;;;;;;6.30;1.70;;;;;;;19.99;46.13;101711.38;5024542;28;20057;-49
2023/02/09 09:33:00;;;;;;;6.78;2.40;;;;;;;20.13;44.88;101711.16;5028235;28;20378;-48
2023/02/09 09:35:27;;;;;;;5.15;2.08;;;;;;;20.35;44.63;101708.19;5023251;28;20571;-50
2023/02/09 09:37:56;;;;;;;6.65;2.90;;;;;;;20.59;44.29;101720.91;5022701;28;20037;-48
2023/02/09 09:40:27;;;;;;;6.18;1.95;;;;;;;20.66;42.58;101738.34;5025033;28;20128;-49
2023/02/09 09:42:58;;;;;;;4.00;1.55;;;;;;;20.55;41.01;101736.78;5020938;28;20125;-52
2023/02/09 09:45:28;;;;;;;8.65;2.08;;;;;;;20.39;41.06;101740.56;5024561;28;20073;-51
2023/02/09 09:47:55;;;;;;;8.73;2.45;;;;;;;20.37;41.40;101742.38;5024722;28;20529;-52
2023/02/09 09:50:26;;;;;;;7.68;1.42;;;;;;;20.23;40.25;101739.97;5026644;28;20104;-53
2023/02/09 09:52:59;;;;;;;7.82;1.65;;;;;;;20.06;40.13;101745.50;5007568;28;20045;-51
2023/02/09 09:55:30;;;;;;;7.20;1.92;;;;;;;19.88;39.89;101755.34;5019063;28;20046;-53
2023/02/09 09:58:02;;;;;;;7.55;1.98;;;;;;;19.78;40.46;101771.28;5027222;28;20068;-53
2023/02/09 10:00:44;;;;;;;5.65;1.08;;;;;;;19.77;39.09;101769.53;5012221;28;20141;-53
2023/02/09 10:03:14;;;;;;;4.25;2.13;;;;;;;19.59;39.51;101769.78;5022860;28;20587;-48
2023/02/09 10:05:42;;;;;;;6.00;2.28;;;;;;;19.35;39.58;101777.94;5025189;28;20096;-53
2023/02/09 10:08:36;;;;;;;9.00;1.70;;;;;;;19.29;39.49;101777.16;5024447;28;20048;-53
2023/02/09 10:11:08;;;;;;;8.43;1.80;;;;;;;19.42;40.67;101773.47;5021191;28;20049;-54
2023/02/09 10:13:43;;;;;;;4.82;1.02;;;;;;;19.68;39.12;101768.75;5027097;28;20109;-52
2023/02/09 10:16:33;;;;;;;6.72;1.17;;;;;;;19.65;39.20;101780.19;5025401;28;20558;-51
2023/02/09 10:19:02;;;;;;;3.88;1.23;;;;;;;19.30;39.23;101781.50;5020267;28;20042;-54
2023/02/09 10:21:33;;;;;;;6.32;1.48;;;;;;;18.75;40.01;101782.91;5024062;28;20046;-51
2023/02/09 10:26:36;;;;;;;3.95;1.17;;;;;;;19.32;41.22;101777.13;5072927;27;20877;-48
2023/02/09 10:31:58;;;;;;;5.90;1.95;;;;;;;19.92;39.58;101788.59;5063669;27;20930;-53
2023/02/09 10:34:32;;;;;;;6.53;1.75;;;;;;;20.13;39.21;101795.34;5073481;28;20101;-54
2023/02/09 10:37:21;;;;;;;9.73;4.70;;;;;;;20.27;38.72;101795.13;5080147;28;20048;-53
2023/02/09 10:39:57;;;;;;;4.93;1.05;;;;;;;20.35;38.87;101796.75;5080059;28;20109;-51
2023/02/09 10:42:31;;;;;;;5.30;1.55;;;;;;;20.43;37.51;101800.13;5079871;28;20051;-53
2023/02/09 10:45:11;;;;;;;8.05;1.90;;;;;;;20.59;37.59;101805.16;5080643;28;20052;-52
2023/02/09 10:47:37;;;;;;;6.85;1.65;;;;;;;20.46;37.01;101800.09;5080269;28;20625;-51
2023/02/09 10:50:16;;;;;;;8.82;1.60;;;;;;;20.39;36.67;101803.72;5081213;28;20396;-52
2023/02/09 10:52:55;;;;;;;4.57;1.27;;;;;;;20.00;35.99;101805.16;5079124;28;20137;-52
2023/02/09 10:55:35;;;;;;;6.65;1.13;;;;;;;19.54;35.94;101798.75;5079670;28;20056;-52
2023/02/09 10:58:20;;;;;;;6.78;1.88;;;;;;;18.93;35.96;101803.75;5079679;28;20463;-49
2023/02/09 11:00:52;;;;;;;3.03;0.68;;;;;;;18.01;36.36;101793.94;5064240;28;20070;-50
2023/02/09 11:03:24;;;;;;;9.05;0.95;;;;;;;17.08;38.23;101799.53;5061122;28;20109;-51
2023/02/09 11:06:15;;;;;;;10.38;2.28;;;;;;;16.31;38.92;101805.59;5091449;28;20091;-51
2023/02/09 11:08:49;;;;;;;3.65;1.73;;;;;;;15.58;39.52;101801.03;5061156;28;20430;-50
2023/02/09 11:13:52;;;;;;;3.75;1.30;;;;;;;14.58;41.38;101800.34;5062940;27;20620;-52
2023/02/09 11:25:47;;;;;;;8.07;1.85;;;;;;;12.89;42.77;101791.31;5078247;27;20747;-50
2023/02/09 11:28:52;;;;;;;5.90;0.77;;;;;;;12.63;43.87;101789.19;5028553;28;20977;-48
2023/02/09 11:37:19;;;;;;;5.00;1.20;;;;;;;12.01;45.46;101782.00;5055254;27;20396;-50
2023/02/09 11:39:56;;;;;;;0.95;0.52;;;;;;;11.69;45.77;101790.88;5030970;28;20060;-50
2023/02/09 11:42:43;;;;;;;4.57;0.98;;;;;;;11.65;45.42;101791.66;5036744;28;20046;-49
2023/02/09 11:53:44;;;;;;;4.45;1.63;;;;;;;11.02;46.42;101810.16;5098505;27;20388;-49
2023/02/09 11:56:13;;;;;;;7.22;2.28;;;;;;;11.02;46.42;101804.97;5070511;28;20495;-50
2023/02/09 12:04:38;;;;;;;5.72;0.75;;;;;;;10.71;46.83;101793.88;5031665;27;20394;-49
2023/02/09 12:07:44;;;;;;;5.13;1.05;;;;;;;10.60;47.56;101790.16;5001202;28;20316;-52
2023/02/09 12:10:35;;;;;;;3.45;0.93;;;;;;;10.48;47.14;101783.84;5004641;28;20054;-50
2023/02/09 12:13:41;;;;;;;5.00;1.15;;;;;;;10.36;47.47;101775.69;5001068;28;20486;-49
2023/02/09 12:16:16;;;;;;;3.63;0.98;;;;;;;10.28;47.56;101784.16;4984315;28;20078;-49
2023/02/09 12:18:44;;;;;;;5.43;0.95;;;;;;;10.18;47.56;101782.16;4993406;28;20525;-50
2023/02/09 12:21:11;;;;;;;2.03;0.65;;;;;;;10.09;48.21;101797.41;5001400;28;20045;-50
2023/02/09 12:23:41;;;;;;;7.25;1.20;;;;;;;10.05;48.33;101777.47;5016643;28;20129;-47
2023/02/09 12:29:02;;;;;;;7.38;2.13;;;;;;;10.01;48.01;101767.03;5014085;27;20426;-50
2023/02/09 12:31:50;;;;;;;3.80;1.50;;;;;;;9.94;48.39;101770.28;5016724;28;20057;-50
2023/02/09 12:34:27;;;;;;;6.55;2.40;;;;;;;9.82;47.98;101777.69;5012121;28;20046;-50
2023/02/09 12:37:17;;;;;;;4.03;1.85;;;;;;;9.58;47.69;101773.56;5013751;28;20034;-52
2023/02/09 12:40:03;;;;;;;;;;;;;;;9.36;48.06;101773.81;5016633;28;20104;-58
2023/02/09 12:45:41;;;;;;;2.40;0.60;;;;;;;9.29;49.07;101776.19;5039407;28;20914;-49
2023/02/09 12:53:33;;;;;;;3.00;0.68;;;;;;;9.32;48.74;101755.59;5086860;27;20721;-50
2023/02/09 12:59:12;;;;;;;3.47;1.55;;;;;;;9.33;48.72;101759.94;5038012;27;20738;-51
2023/02/09 13:07:50;;;;;;;21.52;2.35;;;;;;;9.60;47.83;101766.75;5012197;27;20416;-49
2023/02/09 13:26:23;;;;;;;4.03;0.50;;;;;;;9.15;49.67;101779.19;5049264;28;20396;-50
2023/02/09 13:31:48;;;;;;;3.63;0.65;;;;;;;9.14;50.05;101777.47;5051248;27;20896;-52